METAR Data
IDs: Format: Raw Decoded Include TAF

Data at: 2115 UTC 08 Aug 2020

NZCH 082100Z AUTO 03001KT 9999 NCD 01/01 Q1005 NOSIG
NZCH 082030Z AUTO 35003KT 9999 NCD M01/M02 Q1005 NOSIG
NZCH 082000Z AUTO 32002KT 9999 NCD M02/M03 Q1006 NOSIG
NZCH 081930Z AUTO 32002KT 9999 NCD M03/M03 Q1006 NOSIG
NZCH 081900Z AUTO 03002KT 9999 NCD M03/M04 Q1006 NOSIG
NZCH 081830Z AUTO 10001KT 9999 NCD M03/M04 Q1006 NOSIG

TAF NZCH 081710Z 0818/0918 30008KT CAVOK